Dades meteomassalio
Diari Summary for Setembre 27, 2017 Units:  Metric    English   Both
« Previous Day
Next Day »
Diari Semanal Mensual Anual Personalitzat
  Maxima: Minima: Mijana:
Temperatura: 27.2 °C 8.3 °C 16.8 °C
Rosada: 15.7 °C 6.8 °C 11.2 °C
Humitat: 91 % 45 % 72 %
Velocitat del vent: 25.9 km/h 0.0 km/h 5.8 km/h
Racha vent: 25.9 km/h - -
Vent:- - SE
Pressio: 1024.3 hPa 1020.9 hPa -
Pluja: 0.0 mm    
Historical Graphs
 
 
Tabular Data for Setembre 27, 2017
Time Temperature Dew Point Pressure Wind Wind Speed Wind Gust Humidity Rainfall Rate (Hourly) solar Conditions
00:01 13.9 °C 10.3 °C 1022.9 hPa Calm     79 % 0.0 mm 0.0 W/m2 CLR
00:06 13.3 °C 9.8 °C 1022.9 hPa Calm     79 % 0.0 mm 0.0 W/m2 CLR
00:11 13.3 °C 9.8 °C 1023.2 hPa Calm     79 % 0.0 mm 0.0 W/m2 CLR
00:16 13.3 °C 9.8 °C 1023.2 hPa Calm     79 % 0.0 mm 0.0 W/m2 CLR
00:21 12.8 °C 9.2 °C 1023.2 hPa Calm     79 % 0.0 mm 0.0 W/m2 CLR
00:26 12.8 °C 9.2 °C 1023.2 hPa Calm     79 % 0.0 mm 0.0 W/m2 CLR
00:31 12.8 °C 9.4 °C 1023.2 hPa Calm     80 % 0.0 mm 0.0 W/m2 CLR
00:36 12.2 °C 8.9 °C 1023.2 hPa Calm     80 % 0.0 mm 0.0 W/m2 CLR
00:41 12.2 °C 9.1 °C 1023.2 hPa Calm     81 % 0.0 mm 0.0 W/m2 CLR
00:46 12.2 °C 8.9 °C 1023.2 hPa Calm     80 % 0.0 mm 0.0 W/m2 CLR
00:51 12.2 °C 8.9 °C 1023.2 hPa Calm     80 % 0.0 mm 0.0 W/m2 CLR
00:56 11.7 °C 8.3 °C 1023.2 hPa Calm     80 % 0.0 mm 0.0 W/m2 CLR
01:01 11.7 °C 8.3 °C 1023.2 hPa Calm     80 % 0.0 mm 0.0 W/m2 CLR
01:06 11.7 °C 8.5 °C 1023.2 hPa Calm     81 % 0.0 mm 0.0 W/m2 CLR
01:11 11.7 °C 8.5 °C 1023.2 hPa Calm     81 % 0.0 mm 0.0 W/m2 CLR
01:16 11.7 °C 8.7 °C 1023.2 hPa Calm     82 % 0.0 mm 0.0 W/m2 CLR
01:21 11.7 °C 8.9 °C 1023.2 hPa Calm     83 % 0.0 mm 0.0 W/m2 CLR
01:26 11.7 °C 8.7 °C 1022.9 hPa Calm     82 % 0.0 mm 0.0 W/m2 CLR
01:31 11.1 °C 8.2 °C 1022.9 hPa Calm     82 % 0.0 mm 0.0 W/m2 CLR
01:36 11.1 °C 8.2 °C 1022.9 hPa Calm     82 % 0.0 mm 0.0 W/m2 CLR
01:41 11.1 °C 8.2 °C 1022.9 hPa Calm     82 % 0.0 mm 0.0 W/m2 CLR
01:46 11.1 °C 8.2 °C 1022.9 hPa Calm     82 % 0.0 mm 0.0 W/m2 CLR
01:51 11.1 °C 8.3 °C 1022.9 hPa Calm     83 % 0.0 mm 0.0 W/m2 CLR
01:56 11.1 °C 8.3 °C 1022.9 hPa Calm     83 % 0.0 mm 0.0 W/m2 CLR
02:01 11.7 °C 9.1 °C 1022.9 hPa Calm     84 % 0.0 mm 0.0 W/m2 CLR
02:06 11.7 °C 9.1 °C 1022.9 hPa Calm     84 % 0.0 mm 0.0 W/m2 CLR
02:11 11.7 °C 9.1 °C 1022.9 hPa Calm     84 % 0.0 mm 0.0 W/m2 CLR
02:16 11.1 °C 8.3 °C 1022.9 hPa Calm     83 % 0.0 mm 0.0 W/m2 CLR
02:21 11.1 °C 8.5 °C 1022.9 hPa Calm     84 % 0.0 mm 0.0 W/m2 CLR
02:26 11.1 °C 8.5 °C 1022.9 hPa Calm     84 % 0.0 mm 0.0 W/m2 CLR
02:31 11.1 °C 8.5 °C 1022.9 hPa Calm     84 % 0.0 mm 0.0 W/m2 CLR
02:36 11.1 °C 8.7 °C 1022.9 hPa Calm     85 % 0.0 mm 0.0 W/m2 CLR
02:41 10.6 °C 8.1 °C 1022.9 hPa Calm     85 % 0.0 mm 0.0 W/m2 CLR
02:46 10.6 °C 8.1 °C 1022.6 hPa Calm     85 % 0.0 mm 0.0 W/m2 CLR
02:51 10.6 °C 8.1 °C 1022.9 hPa Calm     85 % 0.0 mm 0.0 W/m2 CLR
02:56 10.6 °C 8.1 °C 1022.6 hPa Calm     85 % 0.0 mm 0.0 W/m2 CLR
03:01 10.6 °C 8.1 °C 1022.9 hPa Calm     85 % 0.0 mm 0.0 W/m2 CLR
03:06 10.0 °C 7.6 °C 1022.6 hPa Calm     85 % 0.0 mm 0.0 W/m2 CLR
03:11 10.0 °C 7.8 °C 1022.6 hPa Calm     86 % 0.0 mm 0.0 W/m2 CLR
03:16 10.0 °C 7.8 °C 1022.6 hPa Calm     86 % 0.0 mm 0.0 W/m2 CLR
03:21 10.0 °C 7.8 °C 1022.6 hPa Calm     86 % 0.0 mm 0.0 W/m2 CLR
03:26 10.0 °C 7.8 °C 1022.6 hPa Calm     86 % 0.0 mm 0.0 W/m2 CLR
03:31 10.0 °C 7.8 °C 1022.6 hPa Calm     86 % 0.0 mm 0.0 W/m2 CLR
03:36 10.0 °C 7.8 °C 1022.6 hPa Calm     86 % 0.0 mm 0.0 W/m2 CLR
03:41 10.0 °C 7.9 °C 1022.6 hPa Calm     87 % 0.0 mm 0.0 W/m2 CLR
03:46 10.0 °C 7.9 °C 1022.6 hPa Calm     87 % 0.0 mm 0.0 W/m2 CLR
03:51 10.0 °C 7.9 °C 1022.6 hPa Calm     87 % 0.0 mm 0.0 W/m2 CLR
03:56 9.4 °C 7.4 °C 1022.6 hPa Calm     87 % 0.0 mm 0.0 W/m2 CLR
04:01 9.4 °C 7.4 °C 1022.6 hPa Calm     87 % 0.0 mm 0.0 W/m2 CLR
04:06 9.4 °C 7.4 °C 1022.6 hPa Calm     87 % 0.0 mm 0.0 W/m2 CLR
04:11 9.4 °C 7.4 °C 1022.6 hPa Calm     87 % 0.0 mm 0.0 W/m2 CLR
04:16 9.4 °C 7.4 °C 1022.6 hPa Calm     87 % 0.0 mm 0.0 W/m2 CLR
04:21 9.4 °C 7.4 °C 1022.2 hPa Calm     87 % 0.0 mm 0.0 W/m2 CLR
04:27 9.4 °C 7.6 °C 1022.6 hPa Calm     88 % 0.0 mm 0.0 W/m2 CLR
04:32 9.4 °C 7.6 °C 1022.6 hPa Calm     88 % 0.0 mm 0.0 W/m2 CLR
04:37 9.4 °C 7.6 °C 1022.6 hPa Calm     88 % 0.0 mm 0.0 W/m2 CLR
04:42 9.4 °C 7.6 °C 1022.6 hPa Calm     88 % 0.0 mm 0.0 W/m2 CLR
04:47 9.4 °C 7.6 °C 1022.2 hPa Calm     88 % 0.0 mm 0.0 W/m2 CLR
04:52 9.4 °C 7.6 °C 1022.2 hPa Calm     88 % 0.0 mm 0.0 W/m2 CLR
04:57 9.4 °C 7.6 °C 1022.6 hPa Calm     88 % 0.0 mm 0.0 W/m2 CLR
05:02 8.9 °C 7.0 °C 1022.6 hPa Calm     88 % 0.0 mm 0.0 W/m2 CLR
05:07 8.9 °C 7.0 °C 1022.6 hPa Calm     88 % 0.0 mm 0.0 W/m2 CLR
05:12 8.9 °C 7.2 °C 1022.6 hPa Calm     89 % 0.0 mm 0.0 W/m2 CLR
05:17 8.9 °C 7.2 °C 1022.6 hPa Calm     89 % 0.0 mm 0.0 W/m2 CLR
05:21 8.9 °C 7.2 °C 1022.6 hPa Calm     89 % 0.0 mm 0.0 W/m2 CLR
05:26 8.9 °C 7.2 °C 1022.6 hPa Calm     89 % 0.0 mm 0.0 W/m2 CLR
05:31 8.9 °C 7.2 °C 1022.6 hPa Calm     89 % 0.0 mm 0.0 W/m2 CLR
05:36 8.9 °C 7.2 °C 1022.6 hPa Calm     89 % 0.0 mm 0.0 W/m2 CLR
05:41 8.9 °C 7.2 °C 1022.6 hPa Calm     89 % 0.0 mm 0.0 W/m2 CLR
05:46 9.4 °C 7.7 °C 1022.6 hPa Calm     89 % 0.0 mm 0.0 W/m2 CLR
05:51 9.4 °C 7.7 °C 1022.6 hPa Calm     89 % 0.0 mm 0.0 W/m2 CLR
05:56 8.9 °C 7.2 °C 1022.6 hPa Calm     89 % 0.0 mm 0.0 W/m2 CLR
06:01 8.9 °C 7.2 °C 1022.6 hPa Calm     89 % 0.0 mm 0.0 W/m2 CLR
06:06 8.9 °C 7.2 °C 1022.6 hPa Calm     89 % 0.0 mm 0.0 W/m2 CLR
06:11 8.9 °C 7.3 °C 1022.6 hPa Calm     90 % 0.0 mm 0.0 W/m2 CLR
06:16 9.4 °C 7.9 °C 1022.9 hPa Calm     90 % 0.0 mm 0.0 W/m2 CLR
06:21 8.9 °C 7.3 °C 1022.9 hPa Calm     90 % 0.0 mm 0.0 W/m2 CLR
06:26 8.9 °C 7.3 °C 1022.9 hPa Calm     90 % 0.0 mm 0.0 W/m2 CLR
06:31 8.9 °C 7.3 °C 1022.9 hPa Calm     90 % 0.0 mm 0.0 W/m2 CLR
06:36 8.9 °C 7.3 °C 1022.9 hPa Calm     90 % 0.0 mm 0.0 W/m2 CLR
06:41 8.9 °C 7.3 °C 1022.9 hPa Calm     90 % 0.0 mm 0.0 W/m2 CLR
06:46 8.9 °C 7.3 °C 1022.9 hPa Calm     90 % 0.0 mm 0.0 W/m2 CLR
06:51 8.9 °C 7.3 °C 1022.9 hPa Calm     90 % 0.0 mm 0.0 W/m2 CLR
06:56 8.9 °C 7.3 °C 1022.9 hPa Calm     90 % 0.0 mm 0.0 W/m2 CLR
07:01 8.3 °C 6.8 °C 1022.9 hPa Calm     90 % 0.0 mm 0.0 W/m2 CLR
07:06 8.3 °C 6.8 °C 1022.9 hPa Calm     90 % 0.0 mm 0.0 W/m2 CLR
07:11 8.3 °C 6.9 °C 1022.9 hPa Calm     91 % 0.0 mm 0.0 W/m2 CLR
07:16 8.3 °C 6.8 °C 1022.9 hPa Calm     90 % 0.0 mm 0.0 W/m2 CLR
07:21 8.3 °C 6.8 °C 1022.9 hPa Calm     90 % 0.0 mm 0.0 W/m2 CLR
07:26 8.3 °C 6.8 °C 1022.9 hPa Calm     90 % 0.0 mm 0.0 W/m2 CLR
07:31 8.3 °C 6.9 °C 1023.2 hPa Calm     91 % 0.0 mm 0.0 W/m2 CLR
07:36 8.3 °C 6.9 °C 1023.2 hPa Calm     91 % 0.0 mm 0.0 W/m2 CLR
07:41 8.3 °C 6.9 °C 1023.2 hPa Calm     91 % 0.0 mm 0.0 W/m2 CLR
07:46 8.3 °C 6.9 °C 1023.2 hPa Calm     91 % 0.0 mm 0.0 W/m2 OVC
07:51 8.3 °C 6.9 °C 1023.2 hPa Calm     91 % 0.0 mm 0.0 W/m2 OVC
07:56 8.3 °C 6.8 °C 1023.2 hPa Calm     90 % 0.0 mm 5.0 W/m2 OVC
08:01 8.3 °C 6.9 °C 1023.2 hPa Calm     91 % 0.0 mm 7.0 W/m2 BKN
08:06 8.3 °C 6.9 °C 1023.2 hPa Calm     91 % 0.0 mm 11.0 W/m2 BKN
08:11 8.3 °C 6.9 °C 1023.2 hPa Calm     91 % 0.0 mm 14.0 W/m2 BKN
08:16 8.3 °C 6.9 °C 1023.2 hPa Calm     91 % 0.0 mm 19.0 W/m2 BKN
08:21 8.3 °C 6.9 °C 1023.6 hPa Calm     91 % 0.0 mm 26.0 W/m2 BKN
08:26 8.3 °C 6.9 °C 1023.6 hPa Calm     91 % 0.0 mm 37.0 W/m2 BKN
08:31 8.9 °C 7.5 °C 1023.6 hPa Calm     91 % 0.0 mm 49.0 W/m2 SCT
08:36 8.9 °C 7.5 °C 1023.6 hPa Calm     91 % 0.0 mm 54.0 W/m2 SCT
08:41 9.4 °C 8.1 °C 1023.6 hPa Calm     91 % 0.0 mm 74.0 W/m2 FEW
08:46 9.4 °C 8.1 °C 1023.6 hPa Calm     91 % 0.0 mm 76.0 W/m2 FEW
08:47 9.4 °C 8.1 °C 1023.6 hPa Calm     91 % 0.0 mm 76.0 W/m2 FEW
08:52 10.0 °C 8.4 °C 1023.6 hPa Calm     90 % 0.0 mm 100.0 W/m2 CLR
08:57 10.0 °C 8.4 °C 1023.6 hPa Calm     90 % 0.0 mm 98.0 W/m2 CLR
09:02 10.0 °C 8.4 °C 1023.6 hPa Calm     90 % 0.0 mm 100.0 W/m2 CLR
09:07 10.6 °C 9.0 °C 1023.6 hPa Calm     90 % 0.0 mm 123.0 W/m2 CLR
09:12 10.6 °C 8.8 °C 1023.6 hPa Calm     89 % 0.0 mm 160.0 W/m2 CLR
09:17 11.1 °C 9.4 °C 1023.6 hPa Calm     89 % 0.0 mm 181.0 W/m2 CLR
09:20 11.1 °C 9.2 °C 1023.6 hPa Calm     88 % 0.0 mm 193.0 W/m2 CLR
09:25 11.1 °C 8.8 °C 1023.6 hPa Calm     86 % 0.0 mm 211.0 W/m2 CLR
09:30 11.7 °C 9.2 °C 1023.9 hPa Calm     85 % 0.0 mm 225.0 W/m2 CLR
09:35 11.7 °C 8.9 °C 1023.9 hPa Calm     83 % 0.0 mm 241.0 W/m2 CLR
09:40 12.2 °C 9.4 °C 1023.9 hPa Calm     83 % 0.0 mm 258.0 W/m2 CLR
09:45 12.8 °C 9.8 °C 1023.9 hPa Calm     82 % 0.0 mm 272.0 W/m2 CLR
09:50 12.8 °C 9.6 °C 1023.9 hPa Calm     81 % 0.0 mm 288.0 W/m2 CLR
09:55 12.8 °C 9.4 °C 1023.9 hPa Calm     80 % 0.0 mm 304.0 W/m2 CLR
10:00 13.3 °C 9.6 °C 1023.9 hPa Calm     78 % 0.0 mm 318.0 W/m2 CLR
10:05 13.9 °C 9.7 °C 1023.9 hPa Calm     76 % 0.0 mm 336.0 W/m2 CLR
10:10 13.9 °C 9.6 °C 1023.9 hPa Calm     75 % 0.0 mm 350.0 W/m2 CLR
10:15 14.4 °C 9.9 °C 1023.9 hPa Calm     74 % 0.0 mm 364.0 W/m2 CLR
10:20 15.0 °C 10.4 °C 1023.9 hPa Calm     74 % 0.0 mm 378.0 W/m2 CLR
10:25 15.6 °C 10.7 °C 1023.9 hPa Calm     73 % 0.0 mm 394.0 W/m2 CLR
10:30 16.1 °C 11.1 °C 1023.9 hPa Calm     72 % 0.0 mm 408.0 W/m2 CLR
10:35 16.7 °C 11.6 °C 1023.9 hPa Calm     72 % 0.0 mm 422.0 W/m2 CLR
10:40 17.2 °C 11.5 °C 1024.3 hPa Calm     69 % 0.0 mm 436.0 W/m2 CLR
10:45 17.8 °C 12.0 °C 1024.3 hPa Calm     69 % 0.0 mm 446.0 W/m2 CLR
10:50 18.3 °C 12.3 °C 1024.3 hPa Calm     68 % 0.0 mm 461.0 W/m2 CLR
10:55 18.9 °C 12.6 °C 1024.3 hPa Calm     67 % 0.0 mm 473.0 W/m2 CLR
11:00 18.9 °C 12.6 °C 1024.3 hPa Calm     67 % 0.0 mm 485.0 W/m2 CLR
11:05 19.4 °C 12.9 °C 1023.9 hPa North 5.6 km/h 5.6 km/h 66 % 0.0 mm 501.0 W/m2 CLR
11:10 20.0 °C 13.2 °C 1023.9 hPa North 5.6 km/h 5.6 km/h 65 % 0.0 mm 513.0 W/m2 CLR
11:15 20.6 °C 13.7 °C 1023.9 hPa North 7.4 km/h 7.4 km/h 65 % 0.0 mm 524.0 W/m2 CLR
11:20 20.6 °C 13.5 °C 1023.9 hPa NW 7.4 km/h 7.4 km/h 64 % 0.0 mm 533.0 W/m2 CLR
11:25 20.6 °C 13.5 °C 1023.9 hPa Calm     64 % 0.0 mm 545.0 W/m2 CLR
11:30 20.6 °C 13.5 °C 1023.9 hPa NNW 5.6 km/h 5.6 km/h 64 % 0.0 mm 561.0 W/m2 CLR
11:35 20.6 °C 13.3 °C 1023.9 hPa NNW 5.6 km/h 5.6 km/h 63 % 0.0 mm 570.0 W/m2 CLR
11:40 21.1 °C 13.8 °C 1023.9 hPa NNW 5.6 km/h 5.6 km/h 63 % 0.0 mm 578.0 W/m2 CLR
11:45 21.7 °C 14.1 °C 1023.9 hPa NW 1.9 km/h 1.9 km/h 62 % 0.0 mm 589.0 W/m2 CLR
11:50 21.7 °C 13.8 °C 1023.9 hPa Calm     61 % 0.0 mm 601.0 W/m2 CLR
11:55 21.7 °C 13.8 °C 1023.9 hPa NNE 6.4 km/h 6.4 km/h 61 % 0.0 mm 612.0 W/m2 CLR
12:00 21.7 °C 13.8 °C 1023.9 hPa NW 1.9 km/h 1.9 km/h 61 % 0.0 mm 621.0 W/m2 CLR
12:05 22.2 °C 14.3 °C 1023.9 hPa Calm     61 % 0.0 mm 629.0 W/m2 CLR
12:10 21.7 °C 13.3 °C 1023.6 hPa NNE 3.7 km/h 3.7 km/h 59 % 0.0 mm 635.0 W/m2 CLR
12:15 22.2 °C 13.8 °C 1023.6 hPa ENE 1.9 km/h 1.9 km/h 59 % 0.0 mm 645.0 W/m2 CLR
12:20 22.2 °C 14.1 °C 1023.6 hPa NE 11.1 km/h 11.1 km/h 60 % 0.0 mm 654.0 W/m2 CLR
12:25 22.8 °C 14.3 °C 1023.6 hPa NNE 5.6 km/h 5.6 km/h 59 % 0.0 mm 659.0 W/m2 CLR
12:30 22.8 °C 14.3 °C 1023.6 hPa NNE 5.6 km/h 5.6 km/h 59 % 0.0 mm 661.0 W/m2 CLR
12:35 23.3 °C 14.9 °C 1023.6 hPa Calm     59 % 0.0 mm 679.0 W/m2 CLR
12:40 23.9 °C 15.1 °C 1023.6 hPa NNW 1.9 km/h   58 % 0.0 mm 684.0 W/m2 CLR
12:45 23.3 °C 14.3 °C 1023.6 hPa Calm     57 % 0.0 mm 689.0 W/m2 CLR
12:50 23.9 °C 14.8 °C 1023.2 hPa NNW 3.7 km/h 3.7 km/h 57 % 0.0 mm 707.0 W/m2 CLR
12:55 23.9 °C 14.6 °C 1023.2 hPa NE 7.4 km/h 7.4 km/h 56 % 0.0 mm 722.0 W/m2 CLR
13:00 23.9 °C 14.0 °C 1023.2 hPa Calm     54 % 0.0 mm 714.0 W/m2 CLR
13:05 23.9 °C 14.3 °C 1023.2 hPa East 9.7 km/h 9.7 km/h 55 % 0.0 mm 707.0 W/m2 CLR
13:10 24.4 °C 15.1 °C 1023.2 hPa Calm     56 % 0.0 mm 693.0 W/m2 CLR
13:15 23.9 °C 14.3 °C 1022.9 hPa WNW 3.7 km/h 3.7 km/h 55 % 0.0 mm 712.0 W/m2 CLR
13:20 23.9 °C 14.3 °C 1022.9 hPa North 5.6 km/h 5.6 km/h 55 % 0.0 mm 717.0 W/m2 CLR
13:25 24.4 °C 14.2 °C 1022.9 hPa Calm     53 % 0.0 mm 719.0 W/m2 CLR
13:30 24.4 °C 14.2 °C 1022.9 hPa Calm     53 % 0.0 mm 715.0 W/m2 CLR
13:35 25.0 °C 14.2 °C 1022.9 hPa North 13.0 km/h 13.0 km/h 51 % 0.0 mm 728.0 W/m2 CLR
13:40 24.4 °C 14.2 °C 1022.9 hPa Calm     53 % 0.0 mm 724.0 W/m2 CLR
13:45 25.6 °C 14.9 °C 1022.9 hPa West 1.6 km/h   52 % 0.0 mm 721.0 W/m2 CLR
13:50 25.0 °C 14.2 °C 1022.6 hPa Calm     51 % 0.0 mm 724.0 W/m2 CLR
13:55 25.0 °C 13.8 °C 1022.6 hPa North 13.0 km/h 13.0 km/h 50 % 0.0 mm 724.0 W/m2 CLR
14:00 25.0 °C 13.6 °C 1022.6 hPa WNW 9.3 km/h 9.3 km/h 49 % 0.0 mm 726.0 W/m2 CLR
14:05 25.0 °C 13.8 °C 1022.6 hPa NNW 11.1 km/h 11.1 km/h 50 % 0.0 mm 726.0 W/m2 CLR
14:10 25.0 °C 13.8 °C 1022.6 hPa NNE 18.5 km/h 18.5 km/h 50 % 0.0 mm 724.0 W/m2 CLR
14:15 25.0 °C 14.2 °C 1022.2 hPa Calm     51 % 0.0 mm 722.0 W/m2 CLR
14:20 25.0 °C 13.6 °C 1022.2 hPa NW 3.2 km/h 3.2 km/h 49 % 0.0 mm 729.0 W/m2 CLR
14:25 25.0 °C 13.2 °C 1022.2 hPa NW 14.8 km/h 14.8 km/h 48 % 0.0 mm 728.0 W/m2 CLR
14:30 25.6 °C 13.7 °C 1022.2 hPa WNW 7.4 km/h 7.4 km/h 48 % 0.0 mm 722.0 W/m2 CLR
14:35 26.1 °C 14.2 °C 1022.2 hPa Calm     48 % 0.0 mm 722.0 W/m2 CLR
14:40 26.1 °C 13.2 °C 1022.2 hPa NW 3.7 km/h   45 % 0.0 mm 726.0 W/m2 CLR
14:45 26.1 °C 13.6 °C 1022.2 hPa NNE 8.0 km/h 8.0 km/h 46 % 0.0 mm 726.0 W/m2 CLR
14:50 26.7 °C 13.7 °C 1021.9 hPa WNW 16.7 km/h 16.7 km/h 45 % 0.0 mm 721.0 W/m2 CLR
14:55 26.1 °C 13.2 °C 1021.9 hPa NW 13.0 km/h 13.0 km/h 45 % 0.0 mm 708.0 W/m2 CLR
15:00 25.6 °C 12.7 °C 1021.9 hPa NW 7.4 km/h 7.4 km/h 45 % 0.0 mm 694.0 W/m2 CLR
15:05 26.1 °C 13.2 °C 1021.9 hPa NNE 18.5 km/h 18.5 km/h 45 % 0.0 mm 687.0 W/m2 CLR
15:10 26.1 °C 13.6 °C 1021.9 hPa NE 18.5 km/h 18.5 km/h 46 % 0.0 mm 686.0 W/m2 CLR
15:15 26.1 °C 13.9 °C 1021.9 hPa ENE 18.5 km/h 18.5 km/h 47 % 0.0 mm 684.0 W/m2 CLR
15:20 26.7 °C 14.4 °C 1021.9 hPa NNE 14.8 km/h 14.8 km/h 47 % 0.0 mm 670.0 W/m2 CLR
15:26 26.7 °C 14.4 °C 1021.9 hPa East 4.8 km/h 4.8 km/h 47 % 0.0 mm 656.0 W/m2 CLR
15:31 27.2 °C 14.3 °C 1021.9 hPa East 18.5 km/h 18.5 km/h 45 % 0.0 mm 656.0 W/m2 CLR
15:36 26.7 °C 14.1 °C 1021.6 hPa North 14.8 km/h 14.8 km/h 46 % 0.0 mm 650.0 W/m2 CLR
15:41 26.1 °C 13.9 °C 1021.6 hPa NNW 16.1 km/h 16.1 km/h 47 % 0.0 mm 640.0 W/m2 CLR
15:46 26.7 °C 14.1 °C 1021.6 hPa North 18.5 km/h 18.5 km/h 46 % 0.0 mm 628.0 W/m2 CLR
15:51 26.1 °C 13.6 °C 1021.6 hPa North 16.7 km/h 16.7 km/h 46 % 0.0 mm 633.0 W/m2 CLR
15:56 25.6 °C 13.1 °C 1021.6 hPa NW 14.8 km/h 14.8 km/h 46 % 0.0 mm 603.0 W/m2 CLR
16:01 26.1 °C 13.9 °C 1021.6 hPa NNW 9.3 km/h 9.3 km/h 47 % 0.0 mm 594.0 W/m2 CLR
16:06 26.1 °C 13.6 °C 1021.6 hPa NW 16.7 km/h 16.7 km/h 46 % 0.0 mm 585.0 W/m2 CLR
16:11 26.1 °C 13.9 °C 1021.6 hPa NNW 11.3 km/h 11.3 km/h 47 % 0.0 mm 575.0 W/m2 CLR
16:16 26.7 °C 14.4 °C 1021.6 hPa NNW 18.5 km/h 18.5 km/h 47 % 0.0 mm 585.0 W/m2 CLR
16:21 26.7 °C 14.4 °C 1021.2 hPa NW 9.3 km/h 9.3 km/h 47 % 0.0 mm 584.0 W/m2 CLR
16:26 26.7 °C 14.4 °C 1021.2 hPa ENE 24.1 km/h 24.1 km/h 47 % 0.0 mm 554.0 W/m2 CLR
16:31 25.6 °C 13.7 °C 1021.2 hPa ENE 13.0 km/h 13.0 km/h 48 % 0.0 mm 125.0 W/m2 CLR
16:36 25.0 °C 13.8 °C 1021.2 hPa NE 16.7 km/h 16.7 km/h 50 % 0.0 mm 165.0 W/m2 CLR
16:41 25.6 °C 14.7 °C 1021.2 hPa NE 16.7 km/h 16.7 km/h 51 % 0.0 mm 209.0 W/m2 CLR
16:46 26.1 °C 15.2 °C 1021.2 hPa East 13.0 km/h 13.0 km/h 51 % 0.0 mm 527.0 W/m2 CLR
16:51 26.1 °C 15.2 °C 1021.2 hPa NE 20.4 km/h 20.4 km/h 51 % 0.0 mm 503.0 W/m2 CLR
16:56 26.1 °C 15.2 °C 1021.2 hPa NNE 14.8 km/h 14.8 km/h 51 % 0.0 mm 489.0 W/m2 CLR
17:01 26.1 °C 15.2 °C 1021.2 hPa ENE 18.5 km/h 18.5 km/h 51 % 0.0 mm 459.0 W/m2 CLR
17:06 26.7 °C 15.7 °C 1021.2 hPa NE 18.5 km/h 18.5 km/h 51 % 0.0 mm 438.0 W/m2 CLR
17:11 26.1 °C 15.2 °C 1021.2 hPa ESE 18.5 km/h 18.5 km/h 51 % 0.0 mm 410.0 W/m2 CLR
17:16 26.1 °C 15.2 °C 1021.2 hPa ENE 14.8 km/h 14.8 km/h 51 % 0.0 mm 392.0 W/m2 CLR
17:21 26.1 °C 15.5 °C 1021.2 hPa NE 20.4 km/h 20.4 km/h 52 % 0.0 mm 387.0 W/m2 CLR
17:26 26.1 °C 15.5 °C 1021.2 hPa East 16.7 km/h 16.7 km/h 52 % 0.0 mm 373.0 W/m2 CLR
17:31 25.6 °C 14.9 °C 1021.2 hPa ENE 18.5 km/h 18.5 km/h 52 % 0.0 mm 359.0 W/m2 CLR
17:36 25.6 °C 15.3 °C 1021.2 hPa ENE 20.4 km/h 20.4 km/h 53 % 0.0 mm 341.0 W/m2 CLR
17:41 25.6 °C 15.3 °C 1021.2 hPa ENE 22.2 km/h 22.2 km/h 53 % 0.0 mm 327.0 W/m2 CLR
17:46 25.6 °C 15.6 °C 1021.2 hPa NE 18.5 km/h 18.5 km/h 54 % 0.0 mm 309.0 W/m2 CLR
17:51 25.0 °C 15.3 °C 1020.9 hPa NE 20.4 km/h 20.4 km/h 55 % 0.0 mm 295.0 W/m2 CLR
17:56 25.0 °C 15.1 °C 1021.2 hPa NE 24.1 km/h 24.1 km/h 54 % 0.0 mm 279.0 W/m2 CLR
18:01 25.0 °C 15.3 °C 1021.2 hPa ENE 24.1 km/h 24.1 km/h 55 % 0.0 mm 260.0 W/m2 CLR
18:06 25.0 °C 15.3 °C 1021.2 hPa NE 25.9 km/h 25.9 km/h 55 % 0.0 mm 246.0 W/m2 CLR
18:11 24.4 °C 14.8 °C 1021.2 hPa East 22.2 km/h 22.2 km/h 55 % 0.0 mm 230.0 W/m2 CLR
18:16 24.4 °C 15.1 °C 1021.2 hPa NNE 19.3 km/h 19.3 km/h 56 % 0.0 mm 216.0 W/m2 CLR
18:21 24.4 °C 15.4 °C 1021.2 hPa NE 22.5 km/h 22.5 km/h 57 % 0.0 mm 193.0 W/m2 CLR
18:26 23.9 °C 14.8 °C 1021.6 hPa ENE 20.4 km/h 20.4 km/h 57 % 0.0 mm 174.0 W/m2 CLR
18:27 23.9 °C 14.8 °C 1021.6 hPa NE 18.5 km/h 18.5 km/h 57 % 0.0 mm 171.0 W/m2 CLR
18:32 23.9 °C 15.1 °C 1021.6 hPa ENE 18.5 km/h 18.5 km/h 58 % 0.0 mm 156.0 W/m2 CLR
18:37 23.9 °C 15.4 °C 1021.6 hPa ENE 18.5 km/h 18.5 km/h 59 % 0.0 mm 141.0 W/m2 CLR
18:42 23.9 °C 15.4 °C 1021.6 hPa ENE 19.3 km/h 19.3 km/h 59 % 0.0 mm 125.0 W/m2 CLR
18:47 23.3 °C 15.1 °C 1021.6 hPa ENE 25.7 km/h 25.7 km/h 60 % 0.0 mm 107.0 W/m2 CLR
18:52 23.3 °C 15.1 °C 1021.6 hPa NE 20.4 km/h 20.4 km/h 60 % 0.0 mm 91.0 W/m2 CLR
18:57 23.3 °C 15.1 °C 1021.6 hPa ENE 20.4 km/h 20.4 km/h 60 % 0.0 mm 79.0 W/m2 FEW
19:02 23.3 °C 15.4 °C 1021.6 hPa East 20.9 km/h 20.9 km/h 61 % 0.0 mm 58.0 W/m2 SCT
19:07 22.8 °C 15.1 °C 1021.6 hPa ENE 24.1 km/h 24.1 km/h 62 % 0.0 mm 46.0 W/m2 BKN
19:12 22.8 °C 15.1 °C 1021.6 hPa NE 22.2 km/h 22.2 km/h 62 % 0.0 mm 32.0 W/m2 BKN
19:17 22.2 °C 14.8 °C 1021.6 hPa ENE 14.5 km/h 14.5 km/h 63 % 0.0 mm 25.0 W/m2 BKN
19:22 22.2 °C 14.8 °C 1021.9 hPa ENE 14.8 km/h 14.8 km/h 63 % 0.0 mm 16.0 W/m2 BKN
19:27 22.2 °C 15.1 °C 1021.9 hPa ENE 20.4 km/h 20.4 km/h 64 % 0.0 mm 11.0 W/m2 BKN
19:32 21.7 °C 14.6 °C 1021.9 hPa NE 8.0 km/h 8.0 km/h 64 % 0.0 mm 7.0 W/m2 BKN
19:37 21.7 °C 14.6 °C 1021.9 hPa ENE 3.7 km/h   64 % 0.0 mm 5.0 W/m2 OVC
19:42 21.1 °C 14.3 °C 1021.9 hPa ENE 13.0 km/h 13.0 km/h 65 % 0.0 mm 5.0 W/m2 OVC
19:47 20.6 °C 14.0 °C 1021.9 hPa ENE 5.6 km/h 5.6 km/h 66 % 0.0 mm 0.0 W/m2 OVC
19:48 20.6 °C 14.0 °C 1022.2 hPa ENE 5.6 km/h 5.6 km/h 66 % 0.0 mm 0.0 W/m2 OVC
19:53 20.6 °C 14.0 °C 1022.2 hPa East 1.9 km/h 1.9 km/h 66 % 0.0 mm 0.0 W/m2 OVC
19:58 20.6 °C 14.2 °C 1022.2 hPa ENE 11.1 km/h 11.1 km/h 67 % 0.0 mm 0.0 W/m2 OVC
20:03 20.6 °C 14.2 °C 1022.2 hPa East 9.3 km/h 9.3 km/h 67 % 0.0 mm 0.0 W/m2 CLR
20:08 20.0 °C 13.7 °C 1022.2 hPa East 11.3 km/h 11.3 km/h 67 % 0.0 mm 0.0 W/m2 CLR
20:13 19.4 °C 13.2 °C 1022.2 hPa East 13.0 km/h 13.0 km/h 67 % 0.0 mm 0.0 W/m2 CLR
20:18 19.4 °C 13.4 °C 1022.2 hPa East 13.0 km/h 13.0 km/h 68 % 0.0 mm 0.0 W/m2 CLR
20:23 18.9 °C 12.8 °C 1022.6 hPa ENE 4.8 km/h 4.8 km/h 68 % 0.0 mm 0.0 W/m2 CLR
20:28 18.9 °C 12.8 °C 1022.6 hPa East 8.0 km/h 8.0 km/h 68 % 0.0 mm 0.0 W/m2 CLR
20:33 18.9 °C 13.1 °C 1022.6 hPa East 1.9 km/h   69 % 0.0 mm 0.0 W/m2 CLR
20:37 18.3 °C 12.6 °C 1022.6 hPa ENE 11.3 km/h 11.3 km/h 69 % 0.0 mm 0.0 W/m2 CLR
20:42 18.3 °C 12.8 °C 1022.6 hPa ENE 9.3 km/h 9.3 km/h 70 % 0.0 mm 0.0 W/m2 CLR
20:47 17.8 °C 12.4 °C 1022.9 hPa East 13.0 km/h 13.0 km/h 71 % 0.0 mm 0.0 W/m2 CLR
20:52 17.8 °C 12.4 °C 1022.9 hPa ENE 7.4 km/h 7.4 km/h 71 % 0.0 mm 0.0 W/m2 CLR
20:57 17.8 °C 12.4 °C 1022.9 hPa ENE 12.9 km/h 12.9 km/h 71 % 0.0 mm 0.0 W/m2 CLR
21:02 17.2 °C 12.1 °C 1022.9 hPa ENE 13.0 km/h 13.0 km/h 72 % 0.0 mm 0.0 W/m2 CLR
21:07 17.2 °C 12.1 °C 1022.9 hPa ENE 11.1 km/h 11.1 km/h 72 % 0.0 mm 0.0 W/m2 CLR
21:12 17.2 °C 12.1 °C 1023.2 hPa Calm     72 % 0.0 mm 0.0 W/m2 CLR
21:17 17.8 °C 12.9 °C 1023.2 hPa Calm     73 % 0.0 mm 0.0 W/m2 CLR
21:22 17.8 °C 12.9 °C 1023.2 hPa Calm     73 % 0.0 mm 0.0 W/m2 CLR
21:27 17.8 °C 12.9 °C 1023.2 hPa Calm     73 % 0.0 mm 0.0 W/m2 CLR
21:33 17.8 °C 12.9 °C 1023.2 hPa Calm     73 % 0.0 mm 0.0 W/m2 CLR
21:38 17.2 °C 12.3 °C 1023.2 hPa NE 5.6 km/h 5.6 km/h 73 % 0.0 mm 0.0 W/m2 CLR
21:43 17.2 °C 12.6 °C 1023.2 hPa ENE 11.1 km/h 11.1 km/h 74 % 0.0 mm 0.0 W/m2 CLR
21:48 16.7 °C 12.0 °C 1023.2 hPa ENE 16.7 km/h 16.7 km/h 74 % 0.0 mm 0.0 W/m2 CLR
21:52 16.7 °C 12.0 °C 1023.6 hPa East 18.5 km/h 18.5 km/h 74 % 0.0 mm 0.0 W/m2 CLR
21:58 16.7 °C 12.0 °C 1023.6 hPa ENE 13.0 km/h 13.0 km/h 74 % 0.0 mm 0.0 W/m2 CLR
22:03 16.7 °C 12.0 °C 1023.6 hPa ENE 11.3 km/h 11.3 km/h 74 % 0.0 mm 0.0 W/m2 CLR
22:08 17.2 °C 12.7 °C 1023.6 hPa ENE 13.0 km/h 13.0 km/h 75 % 0.0 mm 0.0 W/m2 CLR
22:09 17.2 °C 12.7 °C 1023.6 hPa ENE 9.3 km/h 9.3 km/h 75 % 0.0 mm 0.0 W/m2 CLR
22:14 17.2 °C 12.7 °C 1023.6 hPa East 14.8 km/h 14.8 km/h 75 % 0.0 mm 0.0 W/m2 CLR
22:19 17.2 °C 12.7 °C 1023.6 hPa East 11.1 km/h 11.1 km/h 75 % 0.0 mm 0.0 W/m2 CLR
22:24 17.2 °C 12.7 °C 1023.6 hPa East 13.0 km/h 13.0 km/h 75 % 0.0 mm 0.0 W/m2 CLR
22:29 17.2 °C 12.7 °C 1023.9 hPa East 11.3 km/h 11.3 km/h 75 % 0.0 mm 0.0 W/m2 CLR
22:34 16.7 °C 12.2 °C 1023.6 hPa ENE 14.8 km/h 14.8 km/h 75 % 0.0 mm 0.0 W/m2 CLR
22:40 16.7 °C 12.2 °C 1023.6 hPa East 16.7 km/h 16.7 km/h 75 % 0.0 mm 0.0 W/m2 CLR
22:45 16.7 °C 12.4 °C 1023.6 hPa East 16.7 km/h 16.7 km/h 76 % 0.0 mm 0.0 W/m2 CLR
22:50 16.7 °C 12.4 °C 1023.6 hPa East 14.8 km/h 14.8 km/h 76 % 0.0 mm 0.0 W/m2 CLR
22:55 16.7 °C 12.2 °C 1023.6 hPa ENE 14.8 km/h 14.8 km/h 75 % 0.0 mm 0.0 W/m2 CLR
23:00 16.7 °C 12.2 °C 1023.6 hPa ENE 11.1 km/h 11.1 km/h 75 % 0.0 mm 0.0 W/m2 CLR
23:02 16.7 °C 12.2 °C 1023.6 hPa ENE 13.0 km/h 13.0 km/h 75 % 0.0 mm 0.0 W/m2 CLR
23:07 16.7 °C 12.2 °C 1023.6 hPa ENE 14.8 km/h 14.8 km/h 75 % 0.0 mm 0.0 W/m2 CLR
23:12 16.7 °C 12.2 °C 1023.9 hPa East 5.6 km/h   75 % 0.0 mm 0.0 W/m2 CLR
23:17 16.1 °C 11.7 °C 1023.9 hPa Calm     75 % 0.0 mm 0.0 W/m2 CLR
23:22 16.1 °C 11.7 °C 1023.9 hPa Calm     75 % 0.0 mm 0.0 W/m2 CLR
23:27 16.1 °C 11.9 °C 1023.9 hPa Calm     76 % 0.0 mm 0.0 W/m2 CLR
23:32 16.1 °C 11.9 °C 1023.9 hPa Calm     76 % 0.0 mm 0.0 W/m2 CLR
23:37 16.1 °C 11.9 °C 1023.9 hPa Calm     76 % 0.0 mm 0.0 W/m2 CLR
23:42 15.6 °C 11.3 °C 1023.9 hPa Calm     76 % 0.0 mm 0.0 W/m2 CLR
23:47 15.6 °C 11.6 °C 1023.9 hPa Calm     77 % 0.0 mm 0.0 W/m2 CLR
23:52 15.0 °C 11.0 °C 1023.9 hPa Calm     77 % 0.0 mm 0.0 W/m2 CLR
23:57 15.6 °C 11.7 °C 1023.9 hPa Calm     78 % 0.0 mm 0.0 W/m2 CLR
Lo Temps de Massalio
Compliments of Weather Underground - 1.25 mb